Corinthiakos — A8UL2 — position and weather

sailwx.info

Track history (hours):
 
Tides and Currents Weather Stations Pressure Air Temp Water Temp Dewpoint Dewpoint Depression Visibility Wind Speed Wind Dir Waves Ship Positions

Corinthiakos

Last reported at 2014-Aug-01 04:32 UTC. Time now 2014-Aug-01 05:54 UTC.
Position N 25°14' E 120°04'.

Length 262 m; draft 9.3 m.

Type: Cargo ship. MMSI: 636014516.

Date/timePositionNaut miles runAvg speedWind from/ knotsBaromVisibWave heightAir tempDewpointWater temp
2014-Aug-01 04:32N 25°14' E 120°04'1414.0
2014-Aug-01 03:33N 25°05' E 119°53'1614.3
2014-Aug-01 02:28N 24°55' E 119°40'1414.9
2014-Aug-01 01:33N 24°46' E 119°29'1414.4
2014-Aug-01 00:33N 24°36' E 119°17'1413.9
2014-Jul-31 23:32N 24°27' E 119°06'1313.4
2014-Jul-31 22:33N 24°18' E 118°55'1313.1
2014-Jul-31 21:33N 24°09' E 118°45'1312.7
2014-Jul-31 20:33N 24°01' E 118°34'1312.8
2014-Jul-31 19:33N 23°52' E 118°24'1312.8
2014-Jul-31 18:33N 23°44' E 118°13'1413.6
2014-Jul-31 17:33N 23°34' E 118°02'1615.5
2014-Jul-31 16:33N 23°24' E 117°50'1615.9
2014-Jul-31 15:33N 23°14' E 117°36'1615.6
2014-Jul-31 14:33N 23°06' E 117°22'1614.2
2014-Jul-31 13:26N 22°58' E 117°07'1314.9
2014-Jul-31 12:33N 22°51' E 116°54'1514.8
2014-Jul-31 11:31N 22°43' E 116°41'1514.9
2014-Jul-31 10:32N 22°36' E 116°27'12013.2
2014-Jul-31 01:28N 22°34' E 114°17'2 1.6
2014-Jul-31 00:29N 22°34' E 114°15'0 0.0
2014-Jul-30 23:29N 22°34' E 114°15'0 0.0
2014-Jul-30 22:29N 22°34' E 114°15'0 0.0
2014-Jul-30 21:29N 22°34' E 114°15'0 0.0
2014-Jul-30 20:29N 22°34' E 114°15'0 0.0
2014-Jul-30 19:29N 22°34' E 114°15'0 0.0
2014-Jul-30 18:29N 22°34' E 114°15'0 0.0
2014-Jul-30 17:29N 22°34' E 114°15'0 0.0
2014-Jul-30 16:23N 22°34' E 114°15'0 0.0
2014-Jul-30 15:29N 22°34' E 114°15'0 0.0
2014-Jul-30 14:29N 22°34' E 114°15'0 0.0
2014-Jul-30 13:29N 22°34' E 114°15'0 0.1
2014-Jul-30 12:33N 22°34' E 114°15'24 7.6
2014-Jul-30 09:21N 22°11' E 114°25'1113.4
2014-Jul-30 08:32N 22°07' E 114°14'1313.0
2014-Jul-30 07:33N 22°18' E 114°06'0 0.0
2014-Jul-29 22:33N 22°18' E 114°06'10 9.4
2014-Jul-29 21:32N 22°11' E 114°12'5 4.0
2014-Jul-29 20:22N 22°08' E 114°08'5 4.3
2014-Jul-29 19:06N 22°03' E 114°05'4 6.0
2014-Jul-29 18:28N 22°01' E 114°01'6 7.1
2014-Jul-29 17:33N 22°01' E 113°54'8 8.3
2014-Jul-29 16:33N 22°07' E 113°48'1111.1
2014-Jul-29 15:33N 22°18' E 113°48'1312.7
2014-Jul-29 14:33N 22°30' E 113°45'9 3.8
2014-Jul-29 12:16N 22°39' E 113°41'0 0.0
2014-Jul-29 10:04N 22°39' E 113°41'0 0.0
2014-Jul-29 03:07N 22°39' E 113°41'3 5.1
2014-Jul-29 02:32N 22°36' E 113°43'1313.3
2014-Jul-29 01:31N 22°23' E 113°46'1010.4
2014-Jul-29 00:33N 22°13' E 113°49'1111.4
2014-Jul-28 23:33N 22°02' E 113°52'1312.9
2014-Jul-28 22:33N 21°49' E 113°51'20712.8
2014-Jul-28 06:22N 23°05' E 117°20'1612.8
2014-Jul-28 05:07N 23°13' E 117°34'712.5
2014-Jul-28 04:32N 23°18' E 117°40'2512.0
2014-Jul-28 02:25N 23°34' E 118°02'1011.8
2014-Jul-28 01:32N 23°41' E 118°10'4212.3
2014-Jul-27 22:06N 24°09' E 118°44'1212.7
2014-Jul-27 21:11N 24°17' E 118°54'2712.9
2014-Jul-27 19:07N 24°35' E 119°15'1113.2
2014-Jul-27 18:19N 24°42' E 119°24'  
Track history (hours):
 
Tides and Currents Weather Stations Pressure Air Temp Water Temp Dewpoint Dewpoint Depression Visibility Wind Speed Wind Dir Waves Ship Positions

Corinthiakos

Last reported at 2014-Aug-01 04:32 UTC. Time now 2014-Aug-01 05:54 UTC.
Position N 25°14' E 120°04'.

Length 262 m; draft 9.3 m.

Type: Cargo ship. MMSI: 636014516.

Date/timePositionNaut miles runAvg speedWind from/ knotsBaromVisibWave heightAir tempDewpointWater temp
2014-Aug-01 04:32N 25°14' E 120°04'1414.0
2014-Aug-01 03:33N 25°05' E 119°53'1614.3
2014-Aug-01 02:28N 24°55' E 119°40'1414.9
2014-Aug-01 01:33N 24°46' E 119°29'1414.4
2014-Aug-01 00:33N 24°36' E 119°17'1413.9
2014-Jul-31 23:32N 24°27' E 119°06'1313.4
2014-Jul-31 22:33N 24°18' E 118°55'1313.1
2014-Jul-31 21:33N 24°09' E 118°45'1312.7
2014-Jul-31 20:33N 24°01' E 118°34'1312.8
2014-Jul-31 19:33N 23°52' E 118°24'1312.8
2014-Jul-31 18:33N 23°44' E 118°13'1413.6
2014-Jul-31 17:33N 23°34' E 118°02'1615.5
2014-Jul-31 16:33N 23°24' E 117°50'1615.9
2014-Jul-31 15:33N 23°14' E 117°36'1615.6
2014-Jul-31 14:33N 23°06' E 117°22'1614.2
2014-Jul-31 13:26N 22°58' E 117°07'1314.9
2014-Jul-31 12:33N 22°51' E 116°54'1514.8
2014-Jul-31 11:31N 22°43' E 116°41'1514.9
2014-Jul-31 10:32N 22°36' E 116°27'12013.2
2014-Jul-31 01:28N 22°34' E 114°17'2 1.6
2014-Jul-31 00:29N 22°34' E 114°15'0 0.0
2014-Jul-30 23:29N 22°34' E 114°15'0 0.0
2014-Jul-30 22:29N 22°34' E 114°15'0 0.0
2014-Jul-30 21:29N 22°34' E 114°15'0 0.0
2014-Jul-30 20:29N 22°34' E 114°15'0 0.0
2014-Jul-30 19:29N 22°34' E 114°15'0 0.0
2014-Jul-30 18:29N 22°34' E 114°15'0 0.0
2014-Jul-30 17:29N 22°34' E 114°15'0 0.0
2014-Jul-30 16:23N 22°34' E 114°15'0 0.0
2014-Jul-30 15:29N 22°34' E 114°15'0 0.0
2014-Jul-30 14:29N 22°34' E 114°15'0 0.0
2014-Jul-30 13:29N 22°34' E 114°15'0 0.1
2014-Jul-30 12:33N 22°34' E 114°15'24 7.6
2014-Jul-30 09:21N 22°11' E 114°25'1113.4
2014-Jul-30 08:32N 22°07' E 114°14'1313.0
2014-Jul-30 07:33N 22°18' E 114°06'0 0.0
2014-Jul-29 22:33N 22°18' E 114°06'10 9.4
2014-Jul-29 21:32N 22°11' E 114°12'5 4.0
2014-Jul-29 20:22N 22°08' E 114°08'5 4.3
2014-Jul-29 19:06N 22°03' E 114°05'4 6.0
2014-Jul-29 18:28N 22°01' E 114°01'6 7.1
2014-Jul-29 17:33N 22°01' E 113°54'8 8.3
2014-Jul-29 16:33N 22°07' E 113°48'1111.1
2014-Jul-29 15:33N 22°18' E 113°48'1312.7
2014-Jul-29 14:33N 22°30' E 113°45'9 3.8
2014-Jul-29 12:16N 22°39' E 113°41'0 0.0
2014-Jul-29 10:04N 22°39' E 113°41'0 0.0
2014-Jul-29 03:07N 22°39' E 113°41'3 5.1
2014-Jul-29 02:32N 22°36' E 113°43'1313.3
2014-Jul-29 01:31N 22°23' E 113°46'1010.4
2014-Jul-29 00:33N 22°13' E 113°49'1111.4
2014-Jul-28 23:33N 22°02' E 113°52'1312.9
2014-Jul-28 22:33N 21°49' E 113°51'20712.8
2014-Jul-28 06:22N 23°05' E 117°20'1612.8
2014-Jul-28 05:07N 23°13' E 117°34'712.5
2014-Jul-28 04:32N 23°18' E 117°40'2512.0
2014-Jul-28 02:25N 23°34' E 118°02'1011.8
2014-Jul-28 01:32N 23°41' E 118°10'4212.3
2014-Jul-27 22:06N 24°09' E 118°44'1212.7
2014-Jul-27 21:11N 24°17' E 118°54'2712.9
2014-Jul-27 19:07N 24°35' E 119°15'1113.2
2014-Jul-27 18:19N 24°42' E 119°24'  

Dump ship's entire track history